sensor_id;sensor_type;location;lat;lon;timestamp;P1;durP1;ratioP1;P2;durP2;ratioP2
52043;SDS011;38053;53.100;6.078;2023-08-06T00:00:40;14.77;;;10.00;;
52043;SDS011;38053;53.100;6.078;2023-08-06T00:03:05;14.20;;;9.75;;
52043;SDS011;38053;53.100;6.078;2023-08-06T00:05:31;20.52;;;11.50;;
52043;SDS011;38053;53.100;6.078;2023-08-06T00:07:57;17.80;;;12.43;;
52043;SDS011;38053;53.100;6.078;2023-08-06T00:10:22;17.10;;;11.50;;
52043;SDS011;38053;53.100;6.078;2023-08-06T00:12:48;17.15;;;11.65;;
52043;SDS011;38053;53.100;6.078;2023-08-06T00:15:14;12.98;;;11.38;;
52043;SDS011;38053;53.100;6.078;2023-08-06T00:17:40;15.18;;;11.98;;
52043;SDS011;38053;53.100;6.078;2023-08-06T00:20:05;14.27;;;11.82;;
52043;SDS011;38053;53.100;6.078;2023-08-06T00:22:32;21.25;;;14.07;;
52043;SDS011;38053;53.100;6.078;2023-08-06T00:24:59;17.52;;;12.75;;
52043;SDS011;38053;53.100;6.078;2023-08-06T00:27:25;20.65;;;13.45;;
52043;SDS011;38053;53.100;6.078;2023-08-06T00:29:51;16.50;;;12.80;;
52043;SDS011;38053;53.100;6.078;2023-08-06T00:32:17;18.80;;;12.70;;
52043;SDS011;38053;53.100;6.078;2023-08-06T00:34:43;20.33;;;15.55;;
52043;SDS011;38053;53.100;6.078;2023-08-06T00:37:09;20.65;;;15.05;;
52043;SDS011;38053;53.100;6.078;2023-08-06T00:39:34;23.95;;;16.02;;
52043;SDS011;38053;53.100;6.078;2023-08-06T00:42:00;24.52;;;15.38;;
52043;SDS011;38053;53.100;6.078;2023-08-06T00:44:26;20.85;;;15.95;;
52043;SDS011;38053;53.100;6.078;2023-08-06T00:46:52;23.95;;;16.10;;
52043;SDS011;38053;53.100;6.078;2023-08-06T00:49:18;23.42;;;16.88;;
52043;SDS011;38053;53.100;6.078;2023-08-06T00:51:45;25.70;;;18.35;;
52043;SDS011;38053;53.100;6.078;2023-08-06T00:54:10;31.88;;;18.50;;
52043;SDS011;38053;53.100;6.078;2023-08-06T00:56:36;25.83;;;19.10;;
52043;SDS011;38053;53.100;6.078;2023-08-06T00:59:06;22.10;;;17.10;;
52043;SDS011;38053;53.100;6.078;2023-08-06T01:01:31;26.67;;;18.70;;
52043;SDS011;38053;53.100;6.078;2023-08-06T01:03:57;26.70;;;20.17;;
52043;SDS011;38053;53.100;6.078;2023-08-06T01:06:35;30.92;;;21.23;;
52043;SDS011;38053;53.100;6.078;2023-08-06T01:12:03;33.50;;;23.67;;
52043;SDS011;38053;53.100;6.078;2023-08-06T01:14:33;34.42;;;22.63;;
52043;SDS011;38053;53.100;6.078;2023-08-06T01:17:15;40.13;;;23.30;;
52043;SDS011;38053;53.100;6.078;2023-08-06T01:19:41;34.58;;;23.90;;
52043;SDS011;38053;53.100;6.078;2023-08-06T01:22:07;35.55;;;24.75;;
52043;SDS011;38053;53.100;6.078;2023-08-06T01:24:33;32.83;;;23.13;;
52043;SDS011;38053;53.100;6.078;2023-08-06T01:27:09;31.40;;;23.02;;
52043;SDS011;38053;53.100;6.078;2023-08-06T01:29:44;42.22;;;24.40;;
52043;SDS011;38053;53.100;6.078;2023-08-06T01:32:14;31.88;;;22.58;;
52043;SDS011;38053;53.100;6.078;2023-08-06T01:34:41;42.90;;;25.30;;
52043;SDS011;38053;53.100;6.078;2023-08-06T01:37:09;32.50;;;22.33;;
52043;SDS011;38053;53.100;6.078;2023-08-06T01:39:36;36.15;;;24.58;;
52043;SDS011;38053;53.100;6.078;2023-08-06T01:42:01;39.42;;;25.50;;
52043;SDS011;38053;53.100;6.078;2023-08-06T01:44:27;37.63;;;25.95;;
52043;SDS011;38053;53.100;6.078;2023-08-06T01:46:53;38.38;;;25.48;;
52043;SDS011;38053;53.100;6.078;2023-08-06T01:49:19;38.90;;;26.00;;
52043;SDS011;38053;53.100;6.078;2023-08-06T01:51:44;35.35;;;25.73;;
52043;SDS011;38053;53.100;6.078;2023-08-06T01:54:10;40.85;;;26.67;;
52043;SDS011;38053;53.100;6.078;2023-08-06T01:56:36;43.60;;;25.88;;
52043;SDS011;38053;53.100;6.078;2023-08-06T01:59:02;41.15;;;24.92;;
52043;SDS011;38053;53.100;6.078;2023-08-06T02:01:30;36.00;;;24.88;;
52043;SDS011;38053;53.100;6.078;2023-08-06T02:03:56;37.70;;;24.00;;
52043;SDS011;38053;53.100;6.078;2023-08-06T02:06:25;30.92;;;22.25;;
52043;SDS011;38053;53.100;6.078;2023-08-06T02:08:51;32.70;;;23.88;;
52043;SDS011;38053;53.100;6.078;2023-08-06T02:11:17;34.53;;;24.25;;
52043;SDS011;38053;53.100;6.078;2023-08-06T02:13:43;33.92;;;22.60;;
52043;SDS011;38053;53.100;6.078;2023-08-06T02:16:09;29.95;;;23.15;;
52043;SDS011;38053;53.100;6.078;2023-08-06T02:18:35;36.35;;;23.50;;
52043;SDS011;38053;53.100;6.078;2023-08-06T02:21:01;33.55;;;22.77;;
52043;SDS011;38053;53.100;6.078;2023-08-06T02:23:27;37.40;;;23.25;;
52043;SDS011;38053;53.100;6.078;2023-08-06T02:25:57;31.85;;;23.05;;
52043;SDS011;38053;53.100;6.078;2023-08-06T02:28:23;25.73;;;19.95;;
52043;SDS011;38053;53.100;6.078;2023-08-06T02:30:49;30.08;;;20.65;;
52043;SDS011;38053;53.100;6.078;2023-08-06T02:33:16;32.85;;;20.58;;
52043;SDS011;38053;53.100;6.078;2023-08-06T02:35:41;33.13;;;22.27;;
52043;SDS011;38053;53.100;6.078;2023-08-06T02:38:11;33.07;;;23.40;;
52043;SDS011;38053;53.100;6.078;2023-08-06T02:40:47;34.60;;;22.60;;
52043;SDS011;38053;53.100;6.078;2023-08-06T02:43:13;38.13;;;24.13;;
52043;SDS011;38053;53.100;6.078;2023-08-06T02:45:39;29.00;;;20.52;;
52043;SDS011;38053;53.100;6.078;2023-08-06T02:48:05;28.70;;;20.50;;
52043;SDS011;38053;53.100;6.078;2023-08-06T02:50:37;29.83;;;19.90;;
52043;SDS011;38053;53.100;6.078;2023-08-06T02:53:04;30.00;;;19.98;;
52043;SDS011;38053;53.100;6.078;2023-08-06T02:55:31;33.25;;;21.42;;
52043;SDS011;38053;53.100;6.078;2023-08-06T02:57:57;31.02;;;20.05;;
52043;SDS011;38053;53.100;6.078;2023-08-06T03:00:22;28.83;;;20.55;;
52043;SDS011;38053;53.100;6.078;2023-08-06T03:02:48;32.85;;;19.90;;
52043;SDS011;38053;53.100;6.078;2023-08-06T03:05:14;28.15;;;20.85;;
52043;SDS011;38053;53.100;6.078;2023-08-06T03:07:42;26.92;;;18.92;;
52043;SDS011;38053;53.100;6.078;2023-08-06T03:10:08;29.50;;;20.48;;
52043;SDS011;38053;53.100;6.078;2023-08-06T03:12:34;25.83;;;18.75;;
52043;SDS011;38053;53.100;6.078;2023-08-06T03:15:01;29.95;;;20.15;;
52043;SDS011;38053;53.100;6.078;2023-08-06T03:17:27;32.40;;;20.38;;
52043;SDS011;38053;53.100;6.078;2023-08-06T03:19:53;27.00;;;20.30;;
52043;SDS011;38053;53.100;6.078;2023-08-06T03:22:22;29.40;;;20.27;;
52043;SDS011;38053;53.100;6.078;2023-08-06T03:24:50;33.17;;;20.00;;
52043;SDS011;38053;53.100;6.078;2023-08-06T03:27:19;25.55;;;19.35;;
52043;SDS011;38053;53.100;6.078;2023-08-06T03:29:48;30.58;;;21.58;;
52043;SDS011;38053;53.100;6.078;2023-08-06T03:32:15;31.48;;;19.50;;
52043;SDS011;38053;53.100;6.078;2023-08-06T03:34:50;30.85;;;20.30;;
52043;SDS011;38053;53.100;6.078;2023-08-06T03:37:15;27.52;;;20.05;;
52043;SDS011;38053;53.100;6.078;2023-08-06T03:39:41;25.73;;;20.25;;
52043;SDS011;38053;53.100;6.078;2023-08-06T03:42:07;28.38;;;20.33;;
52043;SDS011;38053;53.100;6.078;2023-08-06T03:44:32;30.60;;;20.50;;
52043;SDS011;38053;53.100;6.078;2023-08-06T03:46:58;29.80;;;20.45;;
52043;SDS011;38053;53.100;6.078;2023-08-06T03:49:24;28.70;;;19.65;;
52043;SDS011;38053;53.100;6.078;2023-08-06T03:51:49;29.48;;;20.77;;
52043;SDS011;38053;53.100;6.078;2023-08-06T03:54:16;25.45;;;19.98;;
52043;SDS011;38053;53.100;6.078;2023-08-06T03:56:41;27.92;;;20.77;;
52043;SDS011;38053;53.100;6.078;2023-08-06T03:59:07;31.17;;;21.40;;
52043;SDS011;38053;53.100;6.078;2023-08-06T04:01:36;27.73;;;19.80;;
52043;SDS011;38053;53.100;6.078;2023-08-06T04:04:02;33.05;;;22.00;;
52043;SDS011;38053;53.100;6.078;2023-08-06T04:06:27;27.38;;;20.30;;
52043;SDS011;38053;53.100;6.078;2023-08-06T04:08:53;34.97;;;21.13;;
52043;SDS011;38053;53.100;6.078;2023-08-06T04:11:19;28.00;;;20.48;;
52043;SDS011;38053;53.100;6.078;2023-08-06T04:13:44;31.13;;;20.63;;
52043;SDS011;38053;53.100;6.078;2023-08-06T04:16:10;32.55;;;20.80;;
52043;SDS011;38053;53.100;6.078;2023-08-06T04:18:36;28.88;;;20.58;;
52043;SDS011;38053;53.100;6.078;2023-08-06T04:21:02;28.75;;;21.33;;
52043;SDS011;38053;53.100;6.078;2023-08-06T04:23:28;37.50;;;21.65;;
52043;SDS011;38053;53.100;6.078;2023-08-06T04:25:59;32.38;;;20.77;;
52043;SDS011;38053;53.100;6.078;2023-08-06T04:28:25;31.85;;;21.23;;
52043;SDS011;38053;53.100;6.078;2023-08-06T04:30:51;31.23;;;21.50;;
52043;SDS011;38053;53.100;6.078;2023-08-06T04:33:19;31.08;;;22.48;;
52043;SDS011;38053;53.100;6.078;2023-08-06T04:35:54;29.83;;;21.25;;
52043;SDS011;38053;53.100;6.078;2023-08-06T04:38:29;31.10;;;22.30;;
52043;SDS011;38053;53.100;6.078;2023-08-06T04:40:55;32.22;;;21.17;;
52043;SDS011;38053;53.100;6.078;2023-08-06T04:43:21;26.05;;;19.77;;
52043;SDS011;38053;53.100;6.078;2023-08-06T04:45:52;30.10;;;22.10;;
52043;SDS011;38053;53.100;6.078;2023-08-06T04:48:31;31.10;;;22.25;;
52043;SDS011;38053;53.100;6.078;2023-08-06T04:51:01;29.60;;;21.52;;
52043;SDS011;38053;53.100;6.078;2023-08-06T04:53:27;29.27;;;21.00;;
52043;SDS011;38053;53.100;6.078;2023-08-06T04:55:53;30.48;;;21.38;;
52043;SDS011;38053;53.100;6.078;2023-08-06T04:58:19;26.42;;;19.58;;
52043;SDS011;38053;53.100;6.078;2023-08-06T05:00:45;29.08;;;20.98;;
52043;SDS011;38053;53.100;6.078;2023-08-06T05:03:11;28.30;;;20.38;;
52043;SDS011;38053;53.100;6.078;2023-08-06T05:05:39;28.58;;;21.75;;
52043;SDS011;38053;53.100;6.078;2023-08-06T05:08:06;28.20;;;21.27;;
52043;SDS011;38053;53.100;6.078;2023-08-06T05:10:33;27.10;;;20.67;;
52043;SDS011;38053;53.100;6.078;2023-08-06T05:13:00;33.03;;;21.13;;
52043;SDS011;38053;53.100;6.078;2023-08-06T05:15:26;26.92;;;19.75;;
52043;SDS011;38053;53.100;6.078;2023-08-06T05:17:53;26.63;;;19.83;;
52043;SDS011;38053;53.100;6.078;2023-08-06T05:20:20;25.58;;;18.80;;
52043;SDS011;38053;53.100;6.078;2023-08-06T05:22:47;24.30;;;20.65;;
52043;SDS011;38053;53.100;6.078;2023-08-06T05:25:13;25.70;;;20.13;;
52043;SDS011;38053;53.100;6.078;2023-08-06T05:27:39;29.90;;;21.00;;
52043;SDS011;38053;53.100;6.078;2023-08-06T05:30:12;25.58;;;19.75;;
52043;SDS011;38053;53.100;6.078;2023-08-06T05:32:38;25.58;;;20.48;;
52043;SDS011;38053;53.100;6.078;2023-08-06T05:35:04;26.17;;;19.92;;
52043;SDS011;38053;53.100;6.078;2023-08-06T05:37:33;25.08;;;19.65;;
52043;SDS011;38053;53.100;6.078;2023-08-06T05:39:59;20.75;;;18.55;;
52043;SDS011;38053;53.100;6.078;2023-08-06T05:42:24;24.13;;;19.20;;
52043;SDS011;38053;53.100;6.078;2023-08-06T05:44:58;27.30;;;17.90;;
52043;SDS011;38053;53.100;6.078;2023-08-06T05:47:25;21.33;;;17.92;;
52043;SDS011;38053;53.100;6.078;2023-08-06T05:49:51;22.48;;;18.58;;
52043;SDS011;38053;53.100;6.078;2023-08-06T05:52:17;21.98;;;18.30;;
52043;SDS011;38053;53.100;6.078;2023-08-06T05:54:43;25.88;;;18.77;;
52043;SDS011;38053;53.100;6.078;2023-08-06T05:57:10;22.30;;;18.33;;
52043;SDS011;38053;53.100;6.078;2023-08-06T05:59:35;26.98;;;18.85;;
52043;SDS011;38053;53.100;6.078;2023-08-06T06:02:01;25.17;;;19.75;;
52043;SDS011;38053;53.100;6.078;2023-08-06T06:04:27;25.13;;;19.35;;
52043;SDS011;38053;53.100;6.078;2023-08-06T06:06:53;25.88;;;20.63;;
52043;SDS011;38053;53.100;6.078;2023-08-06T06:09:23;23.05;;;19.17;;
52043;SDS011;38053;53.100;6.078;2023-08-06T06:11:53;22.98;;;18.17;;
52043;SDS011;38053;53.100;6.078;2023-08-06T06:14:19;21.63;;;18.23;;
52043;SDS011;38053;53.100;6.078;2023-08-06T06:16:47;25.00;;;19.42;;
52043;SDS011;38053;53.100;6.078;2023-08-06T06:19:14;29.92;;;20.80;;
52043;SDS011;38053;53.100;6.078;2023-08-06T06:21:40;22.75;;;19.05;;
52043;SDS011;38053;53.100;6.078;2023-08-06T06:24:06;29.98;;;19.00;;
52043;SDS011;38053;53.100;6.078;2023-08-06T06:26:33;20.23;;;18.05;;
52043;SDS011;38053;53.100;6.078;2023-08-06T06:29:07;22.52;;;18.15;;
52043;SDS011;38053;53.100;6.078;2023-08-06T06:31:33;30.23;;;19.77;;
52043;SDS011;38053;53.100;6.078;2023-08-06T06:33:59;25.70;;;20.08;;
52043;SDS011;38053;53.100;6.078;2023-08-06T06:36:25;20.70;;;18.50;;
52043;SDS011;38053;53.100;6.078;2023-08-06T06:38:51;25.77;;;18.80;;
52043;SDS011;38053;53.100;6.078;2023-08-06T06:41:16;25.17;;;20.15;;
52043;SDS011;38053;53.100;6.078;2023-08-06T06:43:42;23.00;;;19.05;;
52043;SDS011;38053;53.100;6.078;2023-08-06T06:46:08;25.73;;;20.35;;
52043;SDS011;38053;53.100;6.078;2023-08-06T06:48:34;19.17;;;17.13;;
52043;SDS011;38053;53.100;6.078;2023-08-06T06:51:02;24.00;;;18.80;;
52043;SDS011;38053;53.100;6.078;2023-08-06T06:53:28;21.55;;;16.95;;
52043;SDS011;38053;53.100;6.078;2023-08-06T06:55:54;22.13;;;16.98;;
52043;SDS011;38053;53.100;6.078;2023-08-06T06:58:20;18.85;;;13.50;;
52043;SDS011;38053;53.100;6.078;2023-08-06T07:00:49;19.08;;;16.10;;
52043;SDS011;38053;53.100;6.078;2023-08-06T07:03:15;17.90;;;14.73;;
52043;SDS011;38053;53.100;6.078;2023-08-06T07:05:41;15.20;;;13.55;;
52043;SDS011;38053;53.100;6.078;2023-08-06T07:08:09;21.98;;;15.25;;
52043;SDS011;38053;53.100;6.078;2023-08-06T07:10:35;23.90;;;13.18;;
52043;SDS011;38053;53.100;6.078;2023-08-06T07:13:01;16.48;;;12.27;;
52043;SDS011;38053;53.100;6.078;2023-08-06T07:15:29;17.50;;;12.65;;
52043;SDS011;38053;53.100;6.078;2023-08-06T07:17:55;14.55;;;12.15;;
52043;SDS011;38053;53.100;6.078;2023-08-06T07:20:24;16.55;;;13.18;;
52043;SDS011;38053;53.100;6.078;2023-08-06T07:22:49;14.77;;;12.30;;
52043;SDS011;38053;53.100;6.078;2023-08-06T07:25:16;13.10;;;11.65;;
52043;SDS011;38053;53.100;6.078;2023-08-06T07:27:42;15.52;;;11.88;;
52043;SDS011;38053;53.100;6.078;2023-08-06T07:30:08;15.52;;;12.25;;
52043;SDS011;38053;53.100;6.078;2023-08-06T07:32:35;15.32;;;11.93;;
52043;SDS011;38053;53.100;6.078;2023-08-06T07:35:01;15.77;;;10.95;;
52043;SDS011;38053;53.100;6.078;2023-08-06T07:37:28;14.75;;;12.05;;
52043;SDS011;38053;53.100;6.078;2023-08-06T07:39:54;15.95;;;11.60;;
52043;SDS011;38053;53.100;6.078;2023-08-06T07:42:20;14.98;;;11.55;;
52043;SDS011;38053;53.100;6.078;2023-08-06T07:44:53;14.85;;;11.82;;
52043;SDS011;38053;53.100;6.078;2023-08-06T07:47:20;12.13;;;10.63;;
52043;SDS011;38053;53.100;6.078;2023-08-06T07:49:46;16.73;;;11.75;;
52043;SDS011;38053;53.100;6.078;2023-08-06T07:52:16;14.20;;;10.70;;
52043;SDS011;38053;53.100;6.078;2023-08-06T07:54:42;13.77;;;11.43;;
52043;SDS011;38053;53.100;6.078;2023-08-06T07:57:07;11.88;;;10.60;;
52043;SDS011;38053;53.100;6.078;2023-08-06T07:59:33;13.15;;;10.38;;
52043;SDS011;38053;53.100;6.078;2023-08-06T08:02:02;12.23;;;9.02;;
52043;SDS011;38053;53.100;6.078;2023-08-06T08:04:29;12.50;;;10.50;;
52043;SDS011;38053;53.100;6.078;2023-08-06T08:06:55;13.73;;;10.20;;
52043;SDS011;38053;53.100;6.078;2023-08-06T08:09:20;11.80;;;8.65;;
52043;SDS011;38053;53.100;6.078;2023-08-06T08:11:46;14.90;;;9.00;;
52043;SDS011;38053;53.100;6.078;2023-08-06T08:14:12;10.00;;;7.88;;
52043;SDS011;38053;53.100;6.078;2023-08-06T08:16:38;10.18;;;8.05;;
52043;SDS011;38053;53.100;6.078;2023-08-06T08:19:03;11.90;;;9.10;;
52043;SDS011;38053;53.100;6.078;2023-08-06T08:21:29;12.20;;;7.82;;
52043;SDS011;38053;53.100;6.078;2023-08-06T08:23:55;10.80;;;7.93;;
52043;SDS011;38053;53.100;6.078;2023-08-06T08:26:21;9.25;;;7.78;;
52043;SDS011;38053;53.100;6.078;2023-08-06T08:28:47;10.00;;;7.65;;
52043;SDS011;38053;53.100;6.078;2023-08-06T08:31:13;10.07;;;9.07;;
52043;SDS011;38053;53.100;6.078;2023-08-06T08:33:39;10.55;;;7.47;;
52043;SDS011;38053;53.100;6.078;2023-08-06T08:36:05;11.18;;;7.20;;
52043;SDS011;38053;53.100;6.078;2023-08-06T08:38:31;11.20;;;7.38;;
52043;SDS011;38053;53.100;6.078;2023-08-06T08:40:57;9.52;;;7.10;;
52043;SDS011;38053;53.100;6.078;2023-08-06T08:43:23;9.02;;;7.20;;
52043;SDS011;38053;53.100;6.078;2023-08-06T08:45:52;11.85;;;7.05;;
52043;SDS011;38053;53.100;6.078;2023-08-06T08:48:24;12.00;;;6.85;;
52043;SDS011;38053;53.100;6.078;2023-08-06T08:50:51;12.85;;;6.72;;
52043;SDS011;38053;53.100;6.078;2023-08-06T08:53:17;9.73;;;6.63;;
52043;SDS011;38053;53.100;6.078;2023-08-06T08:55:46;9.50;;;6.47;;
52043;SDS011;38053;53.100;6.078;2023-08-06T08:58:13;7.55;;;5.82;;
52043;SDS011;38053;53.100;6.078;2023-08-06T09:00:39;9.18;;;5.95;;
52043;SDS011;38053;53.100;6.078;2023-08-06T09:03:10;10.07;;;6.43;;
52043;SDS011;38053;53.100;6.078;2023-08-06T09:05:36;8.07;;;5.80;;
52043;SDS011;38053;53.100;6.078;2023-08-06T09:08:07;13.10;;;6.38;;
52043;SDS011;38053;53.100;6.078;2023-08-06T09:10:39;10.82;;;6.07;;
52043;SDS011;38053;53.100;6.078;2023-08-06T09:13:06;7.53;;;5.32;;
52043;SDS011;38053;53.100;6.078;2023-08-06T09:15:32;7.85;;;5.05;;
52043;SDS011;38053;53.100;6.078;2023-08-06T09:17:58;8.95;;;5.25;;
52043;SDS011;38053;53.100;6.078;2023-08-06T09:20:25;11.40;;;7.32;;
52043;SDS011;38053;53.100;6.078;2023-08-06T09:22:54;8.45;;;6.70;;
52043;SDS011;38053;53.100;6.078;2023-08-06T09:25:22;12.13;;;6.93;;
52043;SDS011;38053;53.100;6.078;2023-08-06T09:27:54;8.88;;;5.53;;
52043;SDS011;38053;53.100;6.078;2023-08-06T09:30:30;8.20;;;4.22;;
52043;SDS011;38053;53.100;6.078;2023-08-06T09:32:57;6.78;;;3.38;;
52043;SDS011;38053;53.100;6.078;2023-08-06T09:35:24;12.90;;;4.30;;
52043;SDS011;38053;53.100;6.078;2023-08-06T09:37:50;4.75;;;3.38;;
52043;SDS011;38053;53.100;6.078;2023-08-06T09:40:31;5.97;;;3.50;;
52043;SDS011;38053;53.100;6.078;2023-08-06T09:42:58;5.85;;;3.88;;
52043;SDS011;38053;53.100;6.078;2023-08-06T09:45:30;5.38;;;3.45;;
52043;SDS011;38053;53.100;6.078;2023-08-06T09:48:00;6.93;;;3.63;;
52043;SDS011;38053;53.100;6.078;2023-08-06T09:50:31;6.05;;;3.55;;
52043;SDS011;38053;53.100;6.078;2023-08-06T09:52:58;7.03;;;4.00;;
52043;SDS011;38053;53.100;6.078;2023-08-06T09:55:25;7.05;;;3.47;;
52043;SDS011;38053;53.100;6.078;2023-08-06T09:57:52;7.25;;;3.95;;
52043;SDS011;38053;53.100;6.078;2023-08-06T10:00:19;5.10;;;3.55;;
52043;SDS011;38053;53.100;6.078;2023-08-06T10:02:46;6.30;;;3.67;;
52043;SDS011;38053;53.100;6.078;2023-08-06T10:05:13;4.95;;;3.00;;
52043;SDS011;38053;53.100;6.078;2023-08-06T10:07:43;8.35;;;3.22;;
52043;SDS011;38053;53.100;6.078;2023-08-06T10:10:10;5.68;;;2.72;;
52043;SDS011;38053;53.100;6.078;2023-08-06T10:12:37;4.95;;;2.88;;
52043;SDS011;38053;53.100;6.078;2023-08-06T10:15:09;5.70;;;2.70;;
52043;SDS011;38053;53.100;6.078;2023-08-06T10:17:38;4.68;;;2.83;;
52043;SDS011;38053;53.100;6.078;2023-08-06T10:20:05;5.68;;;2.95;;
52043;SDS011;38053;53.100;6.078;2023-08-06T10:22:34;4.70;;;2.78;;
52043;SDS011;38053;53.100;6.078;2023-08-06T10:25:00;8.90;;;2.92;;
52043;SDS011;38053;53.100;6.078;2023-08-06T10:27:34;4.85;;;2.78;;
52043;SDS011;38053;53.100;6.078;2023-08-06T10:32:57;4.47;;;2.45;;
52043;SDS011;38053;53.100;6.078;2023-08-06T10:35:29;5.25;;;2.60;;
52043;SDS011;38053;53.100;6.078;2023-08-06T10:38:04;5.55;;;2.40;;
52043;SDS011;38053;53.100;6.078;2023-08-06T10:40:35;5.05;;;2.60;;
52043;SDS011;38053;53.100;6.078;2023-08-06T10:43:02;4.93;;;2.08;;
52043;SDS011;38053;53.100;6.078;2023-08-06T10:45:36;4.25;;;2.20;;
52043;SDS011;38053;53.100;6.078;2023-08-06T10:48:03;4.88;;;2.00;;
52043;SDS011;38053;53.100;6.078;2023-08-06T10:50:32;4.80;;;2.37;;
52043;SDS011;38053;53.100;6.078;2023-08-06T10:53:03;3.95;;;2.17;;
52043;SDS011;38053;53.100;6.078;2023-08-06T10:55:35;3.45;;;1.92;;
52043;SDS011;38053;53.100;6.078;2023-08-06T10:58:03;7.53;;;2.22;;
52043;SDS011;38053;53.100;6.078;2023-08-06T11:00:29;8.40;;;2.33;;
52043;SDS011;38053;53.100;6.078;2023-08-06T11:02:55;5.45;;;1.92;;
52043;SDS011;38053;53.100;6.078;2023-08-06T11:05:20;3.95;;;1.90;;
52043;SDS011;38053;53.100;6.078;2023-08-06T11:07:46;5.85;;;2.53;;
52043;SDS011;38053;53.100;6.078;2023-08-06T11:10:14;3.55;;;1.95;;
52043;SDS011;38053;53.100;6.078;2023-08-06T11:12:40;8.63;;;2.05;;
52043;SDS011;38053;53.100;6.078;2023-08-06T11:15:06;3.90;;;2.28;;
52043;SDS011;38053;53.100;6.078;2023-08-06T11:17:33;7.97;;;2.28;;
52043;SDS011;38053;53.100;6.078;2023-08-06T11:20:00;4.90;;;2.35;;
52043;SDS011;38053;53.100;6.078;2023-08-06T11:22:27;4.10;;;2.10;;
52043;SDS011;38053;53.100;6.078;2023-08-06T11:24:54;3.42;;;2.05;;
52043;SDS011;38053;53.100;6.078;2023-08-06T11:27:20;5.93;;;2.58;;
52043;SDS011;38053;53.100;6.078;2023-08-06T11:29:46;3.88;;;2.05;;
52043;SDS011;38053;53.100;6.078;2023-08-06T11:32:12;5.07;;;2.20;;
52043;SDS011;38053;53.100;6.078;2023-08-06T11:34:39;5.40;;;2.60;;
52043;SDS011;38053;53.100;6.078;2023-08-06T11:37:08;4.78;;;2.30;;
52043;SDS011;38053;53.100;6.078;2023-08-06T11:39:35;5.78;;;2.72;;
52043;SDS011;38053;53.100;6.078;2023-08-06T11:42:02;5.53;;;3.08;;
52043;SDS011;38053;53.100;6.078;2023-08-06T11:44:33;5.40;;;3.83;;
52043;SDS011;38053;53.100;6.078;2023-08-06T11:47:01;6.28;;;3.10;;
52043;SDS011;38053;53.100;6.078;2023-08-06T11:52:16;9.10;;;2.65;;
52043;SDS011;38053;53.100;6.078;2023-08-06T11:54:59;6.10;;;3.40;;
52043;SDS011;38053;53.100;6.078;2023-08-06T11:57:39;4.22;;;2.55;;
52043;SDS011;38053;53.100;6.078;2023-08-06T12:00:12;5.53;;;2.50;;
52043;SDS011;38053;53.100;6.078;2023-08-06T12:02:39;6.38;;;2.13;;
52043;SDS011;38053;53.100;6.078;2023-08-06T12:07:48;3.05;;;2.05;;
52043;SDS011;38053;53.100;6.078;2023-08-06T12:10:19;5.88;;;2.17;;
52043;SDS011;38053;53.100;6.078;2023-08-06T12:12:45;4.22;;;2.22;;
52043;SDS011;38053;53.100;6.078;2023-08-06T12:15:11;3.42;;;1.83;;
52043;SDS011;38053;53.100;6.078;2023-08-06T12:17:37;7.25;;;2.45;;
52043;SDS011;38053;53.100;6.078;2023-08-06T12:20:04;4.82;;;2.30;;
52043;SDS011;38053;53.100;6.078;2023-08-06T12:22:31;6.45;;;2.53;;
52043;SDS011;38053;53.100;6.078;2023-08-06T12:25:07;5.20;;;2.40;;
52043;SDS011;38053;53.100;6.078;2023-08-06T12:27:37;4.70;;;2.72;;
52043;SDS011;38053;53.100;6.078;2023-08-06T12:30:04;3.08;;;2.22;;
52043;SDS011;38053;53.100;6.078;2023-08-06T12:32:31;4.97;;;2.67;;
52043;SDS011;38053;53.100;6.078;2023-08-06T12:34:57;5.00;;;2.40;;
52043;SDS011;38053;53.100;6.078;2023-08-06T12:37:24;3.67;;;2.50;;
52043;SDS011;38053;53.100;6.078;2023-08-06T12:39:50;5.70;;;2.35;;
52043;SDS011;38053;53.100;6.078;2023-08-06T12:42:16;4.65;;;2.28;;
52043;SDS011;38053;53.100;6.078;2023-08-06T12:44:42;4.10;;;1.90;;
52043;SDS011;38053;53.100;6.078;2023-08-06T12:47:08;4.32;;;2.22;;
52043;SDS011;38053;53.100;6.078;2023-08-06T12:49:34;4.15;;;2.15;;
52043;SDS011;38053;53.100;6.078;2023-08-06T12:52:00;3.95;;;1.85;;
52043;SDS011;38053;53.100;6.078;2023-08-06T12:54:26;4.82;;;2.15;;
52043;SDS011;38053;53.100;6.078;2023-08-06T12:56:52;6.32;;;2.17;;
52043;SDS011;38053;53.100;6.078;2023-08-06T12:59:20;6.07;;;2.58;;
52043;SDS011;38053;53.100;6.078;2023-08-06T13:01:46;10.82;;;7.93;;
52043;SDS011;38053;53.100;6.078;2023-08-06T13:04:13;3.80;;;2.03;;
52043;SDS011;38053;53.100;6.078;2023-08-06T13:06:39;6.00;;;2.97;;
52043;SDS011;38053;53.100;6.078;2023-08-06T13:09:06;8.25;;;3.70;;
52043;SDS011;38053;53.100;6.078;2023-08-06T13:16:36;18.40;;;11.35;;
52043;SDS011;38053;53.100;6.078;2023-08-06T13:19:06;7.25;;;4.38;;
52043;SDS011;38053;53.100;6.078;2023-08-06T13:21:58;6.55;;;4.78;;
52043;SDS011;38053;53.100;6.078;2023-08-06T13:24:26;7.13;;;5.60;;
52043;SDS011;38053;53.100;6.078;2023-08-06T13:26:52;6.03;;;2.50;;
52043;SDS011;38053;53.100;6.078;2023-08-06T13:29:18;11.88;;;8.10;;
52043;SDS011;38053;53.100;6.078;2023-08-06T13:31:44;8.07;;;5.95;;
52043;SDS011;38053;53.100;6.078;2023-08-06T13:34:09;9.07;;;4.43;;
52043;SDS011;38053;53.100;6.078;2023-08-06T13:36:35;4.45;;;2.38;;
52043;SDS011;38053;53.100;6.078;2023-08-06T13:39:01;5.57;;;2.25;;
52043;SDS011;38053;53.100;6.078;2023-08-06T13:41:28;7.55;;;3.60;;
52043;SDS011;38053;53.100;6.078;2023-08-06T13:43:54;6.30;;;2.50;;
52043;SDS011;38053;53.100;6.078;2023-08-06T13:46:19;6.03;;;2.42;;
52043;SDS011;38053;53.100;6.078;2023-08-06T13:48:46;4.57;;;2.65;;
52043;SDS011;38053;53.100;6.078;2023-08-06T13:51:16;3.58;;;2.33;;
52043;SDS011;38053;53.100;6.078;2023-08-06T13:53:42;6.88;;;2.78;;
52043;SDS011;38053;53.100;6.078;2023-08-06T13:56:08;7.90;;;2.92;;
52043;SDS011;38053;53.100;6.078;2023-08-06T13:58:37;11.27;;;3.03;;
52043;SDS011;38053;53.100;6.078;2023-08-06T14:01:03;3.22;;;2.10;;
52043;SDS011;38053;53.100;6.078;2023-08-06T14:03:29;4.63;;;2.97;;
52043;SDS011;38053;53.100;6.078;2023-08-06T14:05:55;5.00;;;2.10;;
52043;SDS011;38053;53.100;6.078;2023-08-06T14:08:22;3.90;;;2.17;;
52043;SDS011;38053;53.100;6.078;2023-08-06T14:10:48;5.38;;;2.50;;
52043;SDS011;38053;53.100;6.078;2023-08-06T14:13:14;5.38;;;2.40;;
52043;SDS011;38053;53.100;6.078;2023-08-06T14:15:40;6.25;;;2.20;;
52043;SDS011;38053;53.100;6.078;2023-08-06T14:18:09;10.10;;;2.95;;
52043;SDS011;38053;53.100;6.078;2023-08-06T14:20:34;4.72;;;2.53;;
52043;SDS011;38053;53.100;6.078;2023-08-06T14:23:00;3.47;;;2.25;;
52043;SDS011;38053;53.100;6.078;2023-08-06T14:25:26;4.63;;;2.42;;
52043;SDS011;38053;53.100;6.078;2023-08-06T14:27:52;4.38;;;2.05;;
52043;SDS011;38053;53.100;6.078;2023-08-06T14:30:19;4.63;;;2.75;;
52043;SDS011;38053;53.100;6.078;2023-08-06T14:32:45;4.20;;;2.13;;
52043;SDS011;38053;53.100;6.078;2023-08-06T14:35:10;3.67;;;1.75;;
52043;SDS011;38053;53.100;6.078;2023-08-06T14:37:36;4.97;;;2.40;;
52043;SDS011;38053;53.100;6.078;2023-08-06T14:40:02;3.28;;;1.90;;
52043;SDS011;38053;53.100;6.078;2023-08-06T14:42:29;3.50;;;2.10;;
52043;SDS011;38053;53.100;6.078;2023-08-06T14:44:54;4.55;;;2.17;;
52043;SDS011;38053;53.100;6.078;2023-08-06T14:47:20;3.70;;;2.00;;
52043;SDS011;38053;53.100;6.078;2023-08-06T14:49:46;4.00;;;2.38;;